Mill Creek, Oklahoma
Current Conditions -  °F | °C
As of 11:55 PM on Saturday 22 Nov 2014 (Local Time) from KADM Reporting Station
Overcast Overcast  
Wind Chill: 59°   Ceiling: 1200
Heat Index: 59°   Visibility: 10mi
Dew Point: 59°   Wind: 8mph
Humidity: 100%   Direction: 150°SSE
Pressure: 29.69"   Gusts: NA
Location:  34.4°N, 96.83°W
Report Text: KADM 230555Z AUTO 15007KT 10SM OVC012 15/15 A2969 RMK AO2 P0011 60012 T01500150 10150 20135 401710132
Loading
Personal Weather Stations






























Interactive Weather Map New forecast layout! Learn more

10-Day Weather Forecast

Advertisements
Track Severe Weather on mobile